sensor_id;sensor_type;location;lat;lon;timestamp;temperature;humidity
9544;DHT22;30418;51.45933468;7.33152330;2023-05-21T00:00:07;18.60;54.20
9544;DHT22;30418;51.45933468;7.33152330;2023-05-21T00:02:41;18.60;54.30
9544;DHT22;30418;51.45933468;7.33152330;2023-05-21T00:05:10;18.60;54.30
9544;DHT22;30418;51.45933468;7.33152330;2023-05-21T00:07:41;18.50;54.20
9544;DHT22;30418;51.45933468;7.33152330;2023-05-21T00:10:13;18.50;54.30
9544;DHT22;30418;51.45933468;7.33152330;2023-05-21T00:12:42;18.50;54.30
9544;DHT22;30418;51.45933468;7.33152330;2023-05-21T00:15:11;18.50;54.30
9544;DHT22;30418;51.45933468;7.33152330;2023-05-21T00:17:41;18.40;54.30
9544;DHT22;30418;51.45933468;7.33152330;2023-05-21T00:20:11;18.40;54.70
9544;DHT22;30418;51.45933468;7.33152330;2023-05-21T00:22:40;18.40;54.50
9544;DHT22;30418;51.45933468;7.33152330;2023-05-21T00:25:10;18.40;54.50
9544;DHT22;30418;51.45933468;7.33152330;2023-05-21T00:27:38;18.40;54.50
9544;DHT22;30418;51.45933468;7.33152330;2023-05-21T00:30:07;18.40;54.50
9544;DHT22;30418;51.45933468;7.33152330;2023-05-21T00:32:37;18.30;54.50
9544;DHT22;30418;51.45933468;7.33152330;2023-05-21T00:35:07;18.30;54.50
9544;DHT22;30418;51.45933468;7.33152330;2023-05-21T00:37:36;18.30;54.70
9544;DHT22;30418;51.45933468;7.33152330;2023-05-21T00:40:06;18.30;54.70
9544;DHT22;30418;51.45933468;7.33152330;2023-05-21T00:42:36;18.30;54.70
9544;DHT22;30418;51.45933468;7.33152330;2023-05-21T00:45:07;18.30;54.70
9544;DHT22;30418;51.45933468;7.33152330;2023-05-21T00:47:36;18.20;54.70
9544;DHT22;30418;51.45933468;7.33152330;2023-05-21T00:50:07;18.20;55.30
9544;DHT22;30418;51.45933468;7.33152330;2023-05-21T00:52:36;18.20;54.80
9544;DHT22;30418;51.45933468;7.33152330;2023-05-21T00:55:08;18.20;54.80
9544;DHT22;30418;51.45933468;7.33152330;2023-05-21T00:57:38;18.20;54.80
9544;DHT22;30418;51.45933468;7.33152330;2023-05-21T01:00:09;18.10;54.80
9544;DHT22;30418;51.45933468;7.33152330;2023-05-21T01:02:38;18.10;55.50
9544;DHT22;30418;51.45933468;7.33152330;2023-05-21T01:05:09;18.10;54.80
9544;DHT22;30418;51.45933468;7.33152330;2023-05-21T01:07:39;18.10;55.00
9544;DHT22;30418;51.45933468;7.33152330;2023-05-21T01:10:10;18.10;55.00
9544;DHT22;30418;51.45933468;7.33152330;2023-05-21T01:12:41;18.00;55.00
9544;DHT22;30418;51.45933468;7.33152330;2023-05-21T01:15:11;18.00;55.00
9544;DHT22;30418;51.45933468;7.33152330;2023-05-21T01:17:40;18.00;55.00
9544;DHT22;30418;51.45933468;7.33152330;2023-05-21T01:20:16;18.00;55.10
9544;DHT22;30418;51.45933468;7.33152330;2023-05-21T01:22:51;18.00;55.30
9544;DHT22;30418;51.45933468;7.33152330;2023-05-21T01:25:23;17.90;55.30
9544;DHT22;30418;51.45933468;7.33152330;2023-05-21T01:27:52;17.90;55.10
9544;DHT22;30418;51.45933468;7.33152330;2023-05-21T01:30:22;17.90;55.20
9544;DHT22;30418;51.45933468;7.33152330;2023-05-21T01:32:57;17.90;55.30
9544;DHT22;30418;51.45933468;7.33152330;2023-05-21T01:35:32;17.80;55.40
9544;DHT22;30418;51.45933468;7.33152330;2023-05-21T01:38:11;17.80;55.40
9544;DHT22;30418;51.45933468;7.33152330;2023-05-21T01:40:45;17.80;55.70
9544;DHT22;30418;51.45933468;7.33152330;2023-05-21T01:43:15;17.80;55.50
9544;DHT22;30418;51.45933468;7.33152330;2023-05-21T01:45:46;17.80;55.40
9544;DHT22;30418;51.45933468;7.33152330;2023-05-21T01:48:15;17.80;55.50
9544;DHT22;30418;51.45933468;7.33152330;2023-05-21T01:50:44;17.80;55.50
9544;DHT22;30418;51.45933468;7.33152330;2023-05-21T01:53:14;17.80;55.60
9544;DHT22;30418;51.45933468;7.33152330;2023-05-21T01:55:43;17.70;55.60
9544;DHT22;30418;51.45933468;7.33152330;2023-05-21T01:58:13;17.80;55.70
9544;DHT22;30418;51.45933468;7.33152330;2023-05-21T02:00:43;17.80;55.70
9544;DHT22;30418;51.45933468;7.33152330;2023-05-21T02:03:12;17.80;55.70
9544;DHT22;30418;51.45933468;7.33152330;2023-05-21T02:05:42;17.80;55.70
9544;DHT22;30418;51.45933468;7.33152330;2023-05-21T02:08:11;17.80;55.70
9544;DHT22;30418;51.45933468;7.33152330;2023-05-21T02:10:42;17.80;55.70
9544;DHT22;30418;51.45933468;7.33152330;2023-05-21T02:13:11;17.80;55.70
9544;DHT22;30418;51.45933468;7.33152330;2023-05-21T02:15:40;17.80;55.70
9544;DHT22;30418;51.45933468;7.33152330;2023-05-21T02:18:09;17.80;55.70
9544;DHT22;30418;51.45933468;7.33152330;2023-05-21T02:20:37;17.70;55.60
9544;DHT22;30418;51.45933468;7.33152330;2023-05-21T02:23:06;17.80;55.70
9544;DHT22;30418;51.45933468;7.33152330;2023-05-21T02:25:34;17.80;55.70
9544;DHT22;30418;51.45933468;7.33152330;2023-05-21T02:28:05;17.70;55.60
9544;DHT22;30418;51.45933468;7.33152330;2023-05-21T02:30:34;17.80;55.80
9544;DHT22;30418;51.45933468;7.33152330;2023-05-21T02:33:02;17.70;55.70
9544;DHT22;30418;51.45933468;7.33152330;2023-05-21T02:35:32;17.70;55.70
9544;DHT22;30418;51.45933468;7.33152330;2023-05-21T02:38:01;17.70;55.80
9544;DHT22;30418;51.45933468;7.33152330;2023-05-21T02:40:29;17.70;55.90
9544;DHT22;30418;51.45933468;7.33152330;2023-05-21T02:42:59;17.70;55.80
9544;DHT22;30418;51.45933468;7.33152330;2023-05-21T02:45:31;17.70;55.80
9544;DHT22;30418;51.45933468;7.33152330;2023-05-21T02:48:00;17.70;55.90
9544;DHT22;30418;51.45933468;7.33152330;2023-05-21T02:50:32;17.70;55.90
9544;DHT22;30418;51.45933468;7.33152330;2023-05-21T02:53:01;17.70;55.90
9544;DHT22;30418;51.45933468;7.33152330;2023-05-21T02:55:32;17.70;55.90
9544;DHT22;30418;51.45933468;7.33152330;2023-05-21T02:58:01;17.70;55.90
9544;DHT22;30418;51.45933468;7.33152330;2023-05-21T03:00:31;17.70;56.00
9544;DHT22;30418;51.45933468;7.33152330;2023-05-21T03:03:00;17.70;56.00
9544;DHT22;30418;51.45933468;7.33152330;2023-05-21T03:05:29;17.70;56.00
9544;DHT22;30418;51.45933468;7.33152330;2023-05-21T03:07:57;17.70;56.00
9544;DHT22;30418;51.45933468;7.33152330;2023-05-21T03:10:26;17.70;56.00
9544;DHT22;30418;51.45933468;7.33152330;2023-05-21T03:12:54;17.70;56.10
9544;DHT22;30418;51.45933468;7.33152330;2023-05-21T03:15:23;17.70;56.10
9544;DHT22;30418;51.45933468;7.33152330;2023-05-21T03:17:53;17.60;56.10
9544;DHT22;30418;51.45933468;7.33152330;2023-05-21T03:20:22;17.60;56.10
9544;DHT22;30418;51.45933468;7.33152330;2023-05-21T03:22:51;17.70;56.10
9544;DHT22;30418;51.45933468;7.33152330;2023-05-21T03:25:21;17.60;56.10
9544;DHT22;30418;51.45933468;7.33152330;2023-05-21T03:27:52;17.60;56.10
9544;DHT22;30418;51.45933468;7.33152330;2023-05-21T03:30:41;17.60;56.20
9544;DHT22;30418;51.45933468;7.33152330;2023-05-21T03:33:32;17.60;56.20
9544;DHT22;30418;51.45933468;7.33152330;2023-05-21T03:36:10;17.60;56.20
9544;DHT22;30418;51.45933468;7.33152330;2023-05-21T03:38:38;17.60;56.30
9544;DHT22;30418;51.45933468;7.33152330;2023-05-21T03:41:07;17.60;56.30
9544;DHT22;30418;51.45933468;7.33152330;2023-05-21T03:43:37;17.50;56.30
9544;DHT22;30418;51.45933468;7.33152330;2023-05-21T03:46:05;17.50;56.30
9544;DHT22;30418;51.45933468;7.33152330;2023-05-21T03:48:54;17.50;56.30
9544;DHT22;30418;51.45933468;7.33152330;2023-05-21T03:51:25;17.50;57.10
9544;DHT22;30418;51.45933468;7.33152330;2023-05-21T03:53:56;17.50;56.40
9544;DHT22;30418;51.45933468;7.33152330;2023-05-21T03:56:25;17.50;56.50
9544;DHT22;30418;51.45933468;7.33152330;2023-05-21T03:58:53;17.50;56.50
9544;DHT22;30418;51.45933468;7.33152330;2023-05-21T04:01:22;17.50;56.60
9544;DHT22;30418;51.45933468;7.33152330;2023-05-21T04:03:53;17.50;56.60
9544;DHT22;30418;51.45933468;7.33152330;2023-05-21T04:06:24;17.50;56.70
9544;DHT22;30418;51.45933468;7.33152330;2023-05-21T04:08:52;17.50;56.70
9544;DHT22;30418;51.45933468;7.33152330;2023-05-21T04:11:21;17.50;56.70
9544;DHT22;30418;51.45933468;7.33152330;2023-05-21T04:13:49;17.50;56.70
9544;DHT22;30418;51.45933468;7.33152330;2023-05-21T04:16:18;17.50;56.80
9544;DHT22;30418;51.45933468;7.33152330;2023-05-21T04:18:47;17.40;56.80
9544;DHT22;30418;51.45933468;7.33152330;2023-05-21T04:21:17;17.50;56.90
9544;DHT22;30418;51.45933468;7.33152330;2023-05-21T04:23:45;17.50;57.00
9544;DHT22;30418;51.45933468;7.33152330;2023-05-21T04:26:23;17.50;56.90
9544;DHT22;30418;51.45933468;7.33152330;2023-05-21T04:28:52;17.50;56.90
9544;DHT22;30418;51.45933468;7.33152330;2023-05-21T04:31:21;17.50;56.90
9544;DHT22;30418;51.45933468;7.33152330;2023-05-21T04:33:50;17.50;56.90
9544;DHT22;30418;51.45933468;7.33152330;2023-05-21T04:36:20;17.50;57.00
9544;DHT22;30418;51.45933468;7.33152330;2023-05-21T04:38:48;17.50;57.10
9544;DHT22;30418;51.45933468;7.33152330;2023-05-21T04:41:17;17.50;57.10
9544;DHT22;30418;51.45933468;7.33152330;2023-05-21T04:43:47;17.40;57.00
9544;DHT22;30418;51.45933468;7.33152330;2023-05-21T04:46:16;17.50;57.20
9544;DHT22;30418;51.45933468;7.33152330;2023-05-21T04:48:44;17.40;57.10
9544;DHT22;30418;51.45933468;7.33152330;2023-05-21T04:51:13;17.50;57.20
9544;DHT22;30418;51.45933468;7.33152330;2023-05-21T04:53:43;17.50;57.20
9544;DHT22;30418;51.45933468;7.33152330;2023-05-21T04:56:12;17.50;57.30
9544;DHT22;30418;51.45933468;7.33152330;2023-05-21T04:58:40;17.50;57.40
9544;DHT22;30418;51.45933468;7.33152330;2023-05-21T05:01:10;17.40;57.30
9544;DHT22;30418;51.45933468;7.33152330;2023-05-21T05:03:39;17.40;57.30
9544;DHT22;30418;51.45933468;7.33152330;2023-05-21T05:06:08;17.40;57.40
9544;DHT22;30418;51.45933468;7.33152330;2023-05-21T05:08:36;17.40;57.40
9544;DHT22;30418;51.45933468;7.33152330;2023-05-21T05:11:06;17.40;57.50
9544;DHT22;30418;51.45933468;7.33152330;2023-05-21T05:13:35;17.40;57.70
9544;DHT22;30418;51.45933468;7.33152330;2023-05-21T05:16:04;17.40;57.60
9544;DHT22;30418;51.45933468;7.33152330;2023-05-21T05:18:33;17.40;57.70
9544;DHT22;30418;51.45933468;7.33152330;2023-05-21T05:21:02;17.40;57.60
9544;DHT22;30418;51.45933468;7.33152330;2023-05-21T05:23:31;17.40;57.70
9544;DHT22;30418;51.45933468;7.33152330;2023-05-21T05:26:00;17.40;57.70
9544;DHT22;30418;51.45933468;7.33152330;2023-05-21T05:28:30;17.40;57.70
9544;DHT22;30418;51.45933468;7.33152330;2023-05-21T05:30:59;17.40;57.80
9544;DHT22;30418;51.45933468;7.33152330;2023-05-21T05:33:28;17.40;57.80
9544;DHT22;30418;51.45933468;7.33152330;2023-05-21T05:35:57;17.40;57.80
9544;DHT22;30418;51.45933468;7.33152330;2023-05-21T05:38:25;17.40;57.80
9544;DHT22;30418;51.45933468;7.33152330;2023-05-21T05:40:54;17.40;57.80
9544;DHT22;30418;51.45933468;7.33152330;2023-05-21T05:43:23;17.40;57.80
9544;DHT22;30418;51.45933468;7.33152330;2023-05-21T05:45:55;17.40;57.90
9544;DHT22;30418;51.45933468;7.33152330;2023-05-21T05:48:23;17.40;58.00
9544;DHT22;30418;51.45933468;7.33152330;2023-05-21T05:50:53;17.40;57.90
9544;DHT22;30418;51.45933468;7.33152330;2023-05-21T05:53:24;17.40;58.00
9544;DHT22;30418;51.45933468;7.33152330;2023-05-21T05:55:53;17.50;58.20
9544;DHT22;30418;51.45933468;7.33152330;2023-05-21T05:58:22;17.50;58.10
9544;DHT22;30418;51.45933468;7.33152330;2023-05-21T06:00:59;17.50;58.10
9544;DHT22;30418;51.45933468;7.33152330;2023-05-21T06:03:28;17.50;58.20
9544;DHT22;30418;51.45933468;7.33152330;2023-05-21T06:05:57;17.50;58.10
9544;DHT22;30418;51.45933468;7.33152330;2023-05-21T06:08:27;17.50;58.10
9544;DHT22;30418;51.45933468;7.33152330;2023-05-21T06:10:56;17.60;58.30
9544;DHT22;30418;51.45933468;7.33152330;2023-05-21T06:13:24;17.60;58.30
9544;DHT22;30418;51.45933468;7.33152330;2023-05-21T06:15:53;17.60;58.30
9544;DHT22;30418;51.45933468;7.33152330;2023-05-21T06:18:24;17.60;58.30
9544;DHT22;30418;51.45933468;7.33152330;2023-05-21T06:20:52;17.60;59.10
9544;DHT22;30418;51.45933468;7.33152330;2023-05-21T06:23:22;17.60;58.40
9544;DHT22;30418;51.45933468;7.33152330;2023-05-21T06:25:52;17.60;58.40
9544;DHT22;30418;51.45933468;7.33152330;2023-05-21T06:28:20;17.60;58.40
9544;DHT22;30418;51.45933468;7.33152330;2023-05-21T06:30:50;17.60;58.50
9544;DHT22;30418;51.45933468;7.33152330;2023-05-21T06:33:20;17.70;58.60
9544;DHT22;30418;51.45933468;7.33152330;2023-05-21T06:35:50;17.70;58.70
9544;DHT22;30418;51.45933468;7.33152330;2023-05-21T06:38:19;17.70;58.80
9544;DHT22;30418;51.45933468;7.33152330;2023-05-21T06:40:49;17.70;58.70
9544;DHT22;30418;51.45933468;7.33152330;2023-05-21T06:43:33;17.80;58.80
9544;DHT22;30418;51.45933468;7.33152330;2023-05-21T06:46:21;17.80;58.70
9544;DHT22;30418;51.45933468;7.33152330;2023-05-21T06:48:51;17.80;58.70
9544;DHT22;30418;51.45933468;7.33152330;2023-05-21T06:51:21;17.90;58.80
9544;DHT22;30418;51.45933468;7.33152330;2023-05-21T06:53:49;17.90;58.90
9544;DHT22;30418;51.45933468;7.33152330;2023-05-21T06:56:18;17.90;58.80
9544;DHT22;30418;51.45933468;7.33152330;2023-05-21T06:58:47;17.90;58.90
9544;DHT22;30418;51.45933468;7.33152330;2023-05-21T07:01:16;18.00;59.60
9544;DHT22;30418;51.45933468;7.33152330;2023-05-21T07:03:44;18.00;59.00
9544;DHT22;30418;51.45933468;7.33152330;2023-05-21T07:06:13;18.00;59.00
9544;DHT22;30418;51.45933468;7.33152330;2023-05-21T07:08:44;18.10;59.10
9544;DHT22;30418;51.45933468;7.33152330;2023-05-21T07:11:14;18.10;59.10
9544;DHT22;30418;51.45933468;7.33152330;2023-05-21T07:13:42;18.10;59.00
9544;DHT22;30418;51.45933468;7.33152330;2023-05-21T07:16:11;18.10;59.00
9544;DHT22;30418;51.45933468;7.33152330;2023-05-21T07:18:40;18.20;59.10
9544;DHT22;30418;51.45933468;7.33152330;2023-05-21T07:21:09;18.20;59.10
9544;DHT22;30418;51.45933468;7.33152330;2023-05-21T07:23:38;18.20;59.00
9544;DHT22;30418;51.45933468;7.33152330;2023-05-21T07:26:09;18.30;59.10
9544;DHT22;30418;51.45933468;7.33152330;2023-05-21T07:28:38;18.30;59.20
9544;DHT22;30418;51.45933468;7.33152330;2023-05-21T07:31:08;18.30;59.20
9544;DHT22;30418;51.45933468;7.33152330;2023-05-21T07:33:43;18.30;59.20
9544;DHT22;30418;51.45933468;7.33152330;2023-05-21T07:36:12;18.40;59.20
9544;DHT22;30418;51.45933468;7.33152330;2023-05-21T07:38:42;18.40;59.20
9544;DHT22;30418;51.45933468;7.33152330;2023-05-21T07:41:13;18.50;59.30
9544;DHT22;30418;51.45933468;7.33152330;2023-05-21T07:43:45;18.50;59.30
9544;DHT22;30418;51.45933468;7.33152330;2023-05-21T07:46:14;18.50;59.30
9544;DHT22;30418;51.45933468;7.33152330;2023-05-21T07:48:44;18.50;59.30
9544;DHT22;30418;51.45933468;7.33152330;2023-05-21T07:51:14;18.60;59.40
9544;DHT22;30418;51.45933468;7.33152330;2023-05-21T07:53:43;18.60;59.40
9544;DHT22;30418;51.45933468;7.33152330;2023-05-21T07:56:16;18.70;59.50
9544;DHT22;30418;51.45933468;7.33152330;2023-05-21T07:58:45;18.70;59.50
9544;DHT22;30418;51.45933468;7.33152330;2023-05-21T08:01:15;18.80;59.60
9544;DHT22;30418;51.45933468;7.33152330;2023-05-21T08:03:43;18.80;59.60
9544;DHT22;30418;51.45933468;7.33152330;2023-05-21T08:06:13;18.90;59.60
9544;DHT22;30418;51.45933468;7.33152330;2023-05-21T08:08:41;18.90;59.50
9544;DHT22;30418;51.45933468;7.33152330;2023-05-21T08:11:10;19.00;59.50
9544;DHT22;30418;51.45933468;7.33152330;2023-05-21T08:13:41;19.00;59.50
9544;DHT22;30418;51.45933468;7.33152330;2023-05-21T08:16:12;19.10;59.50
9544;DHT22;30418;51.45933468;7.33152330;2023-05-21T08:18:40;19.10;59.40
9544;DHT22;30418;51.45933468;7.33152330;2023-05-21T08:21:09;19.10;59.30
9544;DHT22;30418;51.45933468;7.33152330;2023-05-21T08:23:38;19.20;59.40
9544;DHT22;30418;51.45933468;7.33152330;2023-05-21T08:26:07;19.20;59.50
9544;DHT22;30418;51.45933468;7.33152330;2023-05-21T08:28:40;19.30;59.60
9544;DHT22;30418;51.45933468;7.33152330;2023-05-21T08:31:09;19.30;59.70
9544;DHT22;30418;51.45933468;7.33152330;2023-05-21T08:33:38;19.40;59.80
9544;DHT22;30418;51.45933468;7.33152330;2023-05-21T08:36:07;19.40;59.70
9544;DHT22;30418;51.45933468;7.33152330;2023-05-21T08:38:46;19.50;59.80
9544;DHT22;30418;51.45933468;7.33152330;2023-05-21T08:41:22;19.60;59.90
9544;DHT22;30418;51.45933468;7.33152330;2023-05-21T08:43:55;19.70;59.80
9544;DHT22;30418;51.45933468;7.33152330;2023-05-21T08:46:27;19.70;59.70
9544;DHT22;30418;51.45933468;7.33152330;2023-05-21T08:49:01;19.80;59.70
9544;DHT22;30418;51.45933468;7.33152330;2023-05-21T08:51:31;19.90;59.90
9544;DHT22;30418;51.45933468;7.33152330;2023-05-21T08:54:00;19.90;59.80
9544;DHT22;30418;51.45933468;7.33152330;2023-05-21T08:56:31;20.00;59.90
9544;DHT22;30418;51.45933468;7.33152330;2023-05-21T08:59:01;20.10;59.70
9544;DHT22;30418;51.45933468;7.33152330;2023-05-21T09:01:34;20.10;59.50
9544;DHT22;30418;51.45933468;7.33152330;2023-05-21T09:04:34;20.20;59.50
9544;DHT22;30418;51.45933468;7.33152330;2023-05-21T09:07:05;20.20;59.30
9544;DHT22;30418;51.45933468;7.33152330;2023-05-21T09:10:12;20.20;59.20
9544;DHT22;30418;51.45933468;7.33152330;2023-05-21T09:12:41;20.20;59.20
9544;DHT22;30418;51.45933468;7.33152330;2023-05-21T09:15:12;20.30;59.20
9544;DHT22;30418;51.45933468;7.33152330;2023-05-21T09:17:45;20.30;59.20
9544;DHT22;30418;51.45933468;7.33152330;2023-05-21T09:20:31;20.30;59.40
9544;DHT22;30418;51.45933468;7.33152330;2023-05-21T09:23:03;20.30;59.30
9544;DHT22;30418;51.45933468;7.33152330;2023-05-21T09:25:32;20.30;59.30
9544;DHT22;30418;51.45933468;7.33152330;2023-05-21T09:28:11;20.30;59.40
9544;DHT22;30418;51.45933468;7.33152330;2023-05-21T09:30:45;20.40;59.40
9544;DHT22;30418;51.45933468;7.33152330;2023-05-21T09:33:23;20.40;59.20
9544;DHT22;30418;51.45933468;7.33152330;2023-05-21T09:35:53;20.40;59.20
9544;DHT22;30418;51.45933468;7.33152330;2023-05-21T09:38:24;20.40;59.10
9544;DHT22;30418;51.45933468;7.33152330;2023-05-21T09:40:54;20.40;59.20
9544;DHT22;30418;51.45933468;7.33152330;2023-05-21T09:43:24;20.50;59.40
9544;DHT22;30418;51.45933468;7.33152330;2023-05-21T09:45:56;20.50;59.40
9544;DHT22;30418;51.45933468;7.33152330;2023-05-21T09:48:34;20.60;59.60
9544;DHT22;30418;51.45933468;7.33152330;2023-05-21T09:51:11;20.60;59.80
9544;DHT22;30418;51.45933468;7.33152330;2023-05-21T09:53:48;20.60;59.60
9544;DHT22;30418;51.45933468;7.33152330;2023-05-21T09:56:20;20.70;59.60
9544;DHT22;30418;51.45933468;7.33152330;2023-05-21T09:58:51;20.70;59.60
9544;DHT22;30418;51.45933468;7.33152330;2023-05-21T10:01:24;20.80;59.50
9544;DHT22;30418;51.45933468;7.33152330;2023-05-21T10:03:54;20.80;59.50
9544;DHT22;30418;51.45933468;7.33152330;2023-05-21T10:06:26;20.90;59.60
9544;DHT22;30418;51.45933468;7.33152330;2023-05-21T10:08:56;20.90;59.50
9544;DHT22;30418;51.45933468;7.33152330;2023-05-21T10:11:30;20.90;59.50
9544;DHT22;30418;51.45933468;7.33152330;2023-05-21T10:14:03;20.90;59.40
9544;DHT22;30418;51.45933468;7.33152330;2023-05-21T10:16:34;20.90;59.40
9544;DHT22;30418;51.45933468;7.33152330;2023-05-21T10:19:04;20.90;59.40
9544;DHT22;30418;51.45933468;7.33152330;2023-05-21T10:21:37;21.00;59.50
9544;DHT22;30418;51.45933468;7.33152330;2023-05-21T10:24:08;21.00;59.40
9544;DHT22;30418;51.45933468;7.33152330;2023-05-21T10:26:37;21.00;59.50
9544;DHT22;30418;51.45933468;7.33152330;2023-05-21T10:29:07;21.00;59.50
9544;DHT22;30418;51.45933468;7.33152330;2023-05-21T10:31:37;21.10;59.50
9544;DHT22;30418;51.45933468;7.33152330;2023-05-21T10:34:06;21.10;59.50
9544;DHT22;30418;51.45933468;7.33152330;2023-05-21T10:36:35;21.10;59.60
9544;DHT22;30418;51.45933468;7.33152330;2023-05-21T10:39:05;21.10;59.60
9544;DHT22;30418;51.45933468;7.33152330;2023-05-21T10:41:41;21.20;59.70
9544;DHT22;30418;51.45933468;7.33152330;2023-05-21T10:44:21;21.20;59.80
9544;DHT22;30418;51.45933468;7.33152330;2023-05-21T10:47:25;21.20;59.80
9544;DHT22;30418;51.45933468;7.33152330;2023-05-21T10:50:27;21.30;59.80
9544;DHT22;30418;51.45933468;7.33152330;2023-05-21T10:53:07;21.40;59.90
9544;DHT22;30418;51.45933468;7.33152330;2023-05-21T10:55:52;21.40;60.50
9544;DHT22;30418;51.45933468;7.33152330;2023-05-21T10:58:50;21.40;59.70
9544;DHT22;30418;51.45933468;7.33152330;2023-05-21T11:01:28;21.50;59.60
9544;DHT22;30418;51.45933468;7.33152330;2023-05-21T11:04:01;21.50;59.40
9544;DHT22;30418;51.45933468;7.33152330;2023-05-21T11:06:30;21.50;59.40
9544;DHT22;30418;51.45933468;7.33152330;2023-05-21T11:09:01;21.60;59.50
9544;DHT22;30418;51.45933468;7.33152330;2023-05-21T11:11:40;21.60;59.50
9544;DHT22;30418;51.45933468;7.33152330;2023-05-21T11:14:30;21.60;59.50
9544;DHT22;30418;51.45933468;7.33152330;2023-05-21T11:17:02;21.60;59.70
9544;DHT22;30418;51.45933468;7.33152330;2023-05-21T11:19:35;21.70;59.60
9544;DHT22;30418;51.45933468;7.33152330;2023-05-21T11:22:09;21.70;59.70
9544;DHT22;30418;51.45933468;7.33152330;2023-05-21T11:24:48;21.80;59.80
9544;DHT22;30418;51.45933468;7.33152330;2023-05-21T11:27:31;21.80;59.70
9544;DHT22;30418;51.45933468;7.33152330;2023-05-21T11:30:05;21.80;59.70
9544;DHT22;30418;51.45933468;7.33152330;2023-05-21T11:32:39;21.90;59.80
9544;DHT22;30418;51.45933468;7.33152330;2023-05-21T11:35:29;21.90;59.70
9544;DHT22;30418;51.45933468;7.33152330;2023-05-21T11:37:58;22.00;59.70
9544;DHT22;30418;51.45933468;7.33152330;2023-05-21T11:40:27;22.00;59.60
9544;DHT22;30418;51.45933468;7.33152330;2023-05-21T11:42:56;22.10;59.70
9544;DHT22;30418;51.45933468;7.33152330;2023-05-21T11:45:28;22.10;59.70
9544;DHT22;30418;51.45933468;7.33152330;2023-05-21T11:47:58;22.20;59.70
9544;DHT22;30418;51.45933468;7.33152330;2023-05-21T11:50:27;22.20;59.60
9544;DHT22;30418;51.45933468;7.33152330;2023-05-21T11:53:01;22.30;59.60
9544;DHT22;30418;51.45933468;7.33152330;2023-05-21T11:55:29;22.30;59.50
9544;DHT22;30418;51.45933468;7.33152330;2023-05-21T11:57:59;22.40;59.50
9544;DHT22;30418;51.45933468;7.33152330;2023-05-21T12:00:30;22.40;59.40
9544;DHT22;30418;51.45933468;7.33152330;2023-05-21T12:03:00;22.50;59.50
9544;DHT22;30418;51.45933468;7.33152330;2023-05-21T12:05:28;22.50;60.10
9544;DHT22;30418;51.45933468;7.33152330;2023-05-21T12:07:57;22.50;59.50
9544;DHT22;30418;51.45933468;7.33152330;2023-05-21T12:10:27;22.60;59.20
9544;DHT22;30418;51.45933468;7.33152330;2023-05-21T12:12:56;22.60;59.10
9544;DHT22;30418;51.45933468;7.33152330;2023-05-21T12:15:25;22.60;59.20
9544;DHT22;30418;51.45933468;7.33152330;2023-05-21T12:17:54;22.60;59.30
9544;DHT22;30418;51.45933468;7.33152330;2023-05-21T12:20:25;22.70;59.40
9544;DHT22;30418;51.45933468;7.33152330;2023-05-21T12:22:56;22.70;59.40
9544;DHT22;30418;51.45933468;7.33152330;2023-05-21T12:25:29;22.70;59.40
9544;DHT22;30418;51.45933468;7.33152330;2023-05-21T12:27:58;22.80;59.60
9544;DHT22;30418;51.45933468;7.33152330;2023-05-21T12:30:29;22.80;59.50
9544;DHT22;30418;51.45933468;7.33152330;2023-05-21T12:32:58;22.90;59.40
9544;DHT22;30418;51.45933468;7.33152330;2023-05-21T12:35:29;22.90;59.50
9544;DHT22;30418;51.45933468;7.33152330;2023-05-21T12:38:00;22.90;59.30
9544;DHT22;30418;51.45933468;7.33152330;2023-05-21T12:40:37;23.00;59.50
9544;DHT22;30418;51.45933468;7.33152330;2023-05-21T12:43:07;23.00;59.30
9544;DHT22;30418;51.45933468;7.33152330;2023-05-21T12:45:37;23.00;59.20
9544;DHT22;30418;51.45933468;7.33152330;2023-05-21T12:48:07;23.00;59.90
9544;DHT22;30418;51.45933468;7.33152330;2023-05-21T12:50:38;23.00;59.30
9544;DHT22;30418;51.45933468;7.33152330;2023-05-21T12:53:08;23.00;59.40
9544;DHT22;30418;51.45933468;7.33152330;2023-05-21T12:55:39;23.10;59.40
9544;DHT22;30418;51.45933468;7.33152330;2023-05-21T12:58:12;23.10;60.10
9544;DHT22;30418;51.45933468;7.33152330;2023-05-21T13:00:41;23.20;59.70
9544;DHT22;30418;51.45933468;7.33152330;2023-05-21T13:03:11;23.30;59.60
9544;DHT22;30418;51.45933468;7.33152330;2023-05-21T13:05:40;23.30;59.60
9544;DHT22;30418;51.45933468;7.33152330;2023-05-21T13:08:08;23.30;59.40
9544;DHT22;30418;51.45933468;7.33152330;2023-05-21T13:10:41;23.40;59.30
9544;DHT22;30418;51.45933468;7.33152330;2023-05-21T13:13:10;23.50;59.20
9544;DHT22;30418;51.45933468;7.33152330;2023-05-21T13:15:38;23.50;59.10
9544;DHT22;30418;51.45933468;7.33152330;2023-05-21T13:18:07;23.50;58.80
9544;DHT22;30418;51.45933468;7.33152330;2023-05-21T13:20:36;23.50;58.80
9544;DHT22;30418;51.45933468;7.33152330;2023-05-21T13:23:05;23.50;58.90
9544;DHT22;30418;51.45933468;7.33152330;2023-05-21T13:25:37;23.60;58.90
9544;DHT22;30418;51.45933468;7.33152330;2023-05-21T13:28:07;23.60;59.00
9544;DHT22;30418;51.45933468;7.33152330;2023-05-21T13:30:41;23.60;59.00
9544;DHT22;30418;51.45933468;7.33152330;2023-05-21T13:33:09;23.60;59.10
9544;DHT22;30418;51.45933468;7.33152330;2023-05-21T13:35:39;23.70;59.20
9544;DHT22;30418;51.45933468;7.33152330;2023-05-21T13:38:07;23.80;59.50
9544;DHT22;30418;51.45933468;7.33152330;2023-05-21T13:40:35;23.90;59.60
9544;DHT22;30418;51.45933468;7.33152330;2023-05-21T13:43:06;23.90;59.40
9544;DHT22;30418;51.45933468;7.33152330;2023-05-21T13:45:35;24.00;59.40
9544;DHT22;30418;51.45933468;7.33152330;2023-05-21T13:48:05;24.10;59.20
9544;DHT22;30418;51.45933468;7.33152330;2023-05-21T13:50:34;24.10;59.00
9544;DHT22;30418;51.45933468;7.33152330;2023-05-21T13:53:03;24.20;59.00
9544;DHT22;30418;51.45933468;7.33152330;2023-05-21T13:55:31;24.30;58.90